createdAt,value
2019-05-23T00:02:42.013Z,98731.67
2019-05-23T00:08:11.425Z,98735.86
2019-05-23T00:13:35.418Z,98730.06
2019-05-23T00:18:42.618Z,98733.36
2019-05-23T00:23:48.085Z,98732.91
2019-05-23T00:29:09.121Z,98730.98
2019-05-23T00:34:02.808Z,98737.95
2019-05-23T00:39:09.264Z,98735.66
2019-05-23T00:44:15.934Z,98733.60
2019-05-23T00:49:22.267Z,98731.36
2019-05-23T00:54:27.732Z,98739.69
2019-05-23T00:59:33.948Z,98742.11
2019-05-23T01:04:40.601Z,98739.11
2019-05-23T01:09:46.354Z,98730.52
2019-05-23T01:14:51.955Z,98742.61
2019-05-23T01:19:58.874Z,98744.19
2019-05-23T01:25:05.094Z,98743.30
2019-05-23T01:30:13.334Z,98737.24
2019-05-23T01:35:20.887Z,98726.36
2019-05-23T01:40:26.077Z,98729.92
2019-05-23T01:45:33.403Z,98734.16
2019-05-23T01:50:39.342Z,98733.68
2019-05-23T01:55:44.662Z,98737.69
2019-05-23T02:00:50.155Z,98737.97
2019-05-23T02:05:55.716Z,98731.75
2019-05-23T02:11:01.920Z,98733.47
2019-05-23T02:16:08.290Z,98736.14
2019-05-23T02:21:16.346Z,98733.97
2019-05-23T02:26:23.684Z,98735.05
2019-05-23T02:31:28.864Z,98733.48
2019-05-23T02:36:34.559Z,98728.74
2019-05-23T02:41:54.480Z,98732.77
2019-05-23T02:47:18.422Z,98737.16
2019-05-23T02:52:41.545Z,98727.31
2019-05-23T02:57:48.139Z,98733.17
2019-05-23T03:02:58.617Z,98729.14
2019-05-23T03:08:08.024Z,98733.16
2019-05-23T03:13:13.870Z,98725.28
2019-05-23T03:18:21.930Z,98725.52
2019-05-23T03:23:28.607Z,98720.28
2019-05-23T03:28:42.759Z,98716.55
2019-05-23T03:33:48.480Z,98712.40
2019-05-23T03:38:55.707Z,98716.78
2019-05-23T03:44:01.595Z,98716.28
2019-05-23T03:49:08.897Z,98706.45
2019-05-23T03:54:15.180Z,98710.83
2019-05-23T03:59:22.379Z,98712.90
2019-05-23T04:04:27.903Z,98706.58
2019-05-23T04:09:34.393Z,98706.58
2019-05-23T04:14:39.824Z,98704.01
2019-05-23T04:19:44.999Z,98701.09
2019-05-23T04:24:50.373Z,98703.26
2019-05-23T04:29:56.063Z,98701.80
2019-05-23T04:35:01.146Z,98698.98
2019-05-23T04:40:09.048Z,98708.48
2019-05-23T04:45:15.565Z,98713.08
2019-05-23T04:50:21.338Z,98713.17
2019-05-23T04:55:27.124Z,98723.23
2019-05-23T05:00:33.111Z,98720.84
2019-05-23T05:05:38.691Z,98717.50
2019-05-23T05:10:45.238Z,98718.56
2019-05-23T05:15:50.883Z,98724.80
2019-05-23T05:20:57.042Z,98724.88
2019-05-23T05:26:03.736Z,98722.13
2019-05-23T05:31:09.181Z,98725.67
2019-05-23T05:36:14.626Z,98731.05
2019-05-23T05:41:20.650Z,98730.34
2019-05-23T05:46:25.948Z,98735.41
2019-05-23T05:51:31.219Z,98738.44
2019-05-23T05:56:36.457Z,98734.09
2019-05-23T06:01:41.777Z,98739.34
2019-05-23T06:07:06.036Z,98745.30
2019-05-23T06:12:12.748Z,98742.77
2019-05-23T06:17:19.738Z,98748.05
2019-05-23T06:22:25.964Z,98751.42
2019-05-23T06:27:31.391Z,98739.62
2019-05-23T06:32:38.415Z,98742.36
2019-05-23T06:37:43.736Z,98751.13
2019-05-23T06:42:50.859Z,98750.87
2019-05-23T06:47:56.089Z,98747.84
2019-05-23T06:53:02.236Z,98749.53
2019-05-23T06:58:08.483Z,98754.82
2019-05-23T07:03:14.637Z,98750.64
2019-05-23T07:08:25.305Z,98753.24
2019-05-23T07:13:31.726Z,98760.16
2019-05-23T07:18:37.946Z,98764.80
2019-05-23T07:23:43.096Z,98760.06
2019-05-23T07:28:48.900Z,98766.83
2019-05-23T07:34:01.876Z,98765.98
2019-05-23T07:39:01.549Z,98759.98
2019-05-23T07:44:08.315Z,98769.06
2019-05-23T07:49:13.408Z,98764.77
2019-05-23T07:54:23.796Z,98765.75
2019-05-23T07:59:29.144Z,98758.60
2019-05-23T08:04:35.158Z,98764.54
2019-05-23T08:09:41.253Z,98763.91
2019-05-23T08:14:46.851Z,98760.89
2019-05-23T08:19:52.025Z,98752.09
2019-05-23T08:24:57.754Z,98751.27
2019-05-23T08:30:03.763Z,98750.19
2019-05-23T08:35:09.622Z,98747.81
2019-05-23T08:40:17.021Z,98744.89
2019-05-23T08:45:22.654Z,98740.10
2019-05-23T08:50:28.062Z,98750.16
2019-05-23T08:55:34.502Z,98739.87
2019-05-23T09:00:40.717Z,98746.05
2019-05-23T09:05:47.588Z,98762.85
2019-05-23T09:10:52.920Z,98749.25
2019-05-23T09:15:58.231Z,98740.75
2019-05-23T09:21:05.088Z,98745.21
2019-05-23T09:26:10.166Z,98752.95
2019-05-23T09:31:15.905Z,98738.09
2019-05-23T09:36:21.208Z,98740.48
2019-05-23T09:41:26.368Z,98738.13
2019-05-23T09:46:31.787Z,98736.31
2019-05-23T09:51:37.016Z,98737.24
2019-05-23T09:56:42.432Z,98733.83
2019-05-23T10:01:48.489Z,98729.30
2019-05-23T10:06:54.204Z,98744.68
2019-05-23T10:11:59.945Z,98745.47
2019-05-23T10:17:05.465Z,98737.89
2019-05-23T10:22:11.273Z,98728.92
2019-05-23T10:27:16.410Z,98734.56
2019-05-23T10:32:21.634Z,98732.43
2019-05-23T10:37:28.531Z,98730.13
2019-05-23T10:42:34.444Z,98725.40
2019-05-23T10:47:39.923Z,98728.22
2019-05-23T10:52:45.535Z,98709.16
2019-05-23T10:57:51.112Z,98711.36
2019-05-23T11:02:56.553Z,98709.44
2019-05-23T11:08:02.821Z,98711.95
2019-05-23T11:13:08.398Z,98707.30
2019-05-23T11:18:13.735Z,98707.02
2019-05-23T11:23:24.891Z,98714.88
2019-05-23T11:28:31.723Z,98703.30
2019-05-23T11:33:36.936Z,98698.87
2019-05-23T11:38:42.045Z,98687.33
2019-05-23T11:43:47.431Z,98677.75
2019-05-23T11:48:53.653Z,98680.08
2019-05-23T11:54:07.954Z,98671.12
2019-05-23T11:59:05.975Z,98681.45
2019-05-23T12:04:15.093Z,98682.59
2019-05-23T12:09:21.810Z,98676.72
2019-05-23T12:14:27.041Z,98669.48
2019-05-23T12:19:32.896Z,98659.30
2019-05-23T12:24:38.345Z,98650.65
2019-05-23T12:29:44.384Z,98646.35
2019-05-23T12:35:08.549Z,98651.37
2019-05-23T12:39:57.378Z,98651.95
2019-05-23T12:45:02.917Z,98638.86
2019-05-23T12:50:13.148Z,98636.34
2019-05-23T12:55:18.594Z,98633.50
2019-05-23T13:00:43.151Z,98621.75
2019-05-23T13:05:50.823Z,98612.97
2019-05-23T13:10:56.081Z,98600.97
2019-05-23T13:16:01.410Z,98605.38
2019-05-23T13:21:07.230Z,98602.66
2019-05-23T13:26:12.745Z,98601.73
2019-05-23T13:31:17.956Z,98601.92
2019-05-23T13:36:23.558Z,98596.89
2019-05-23T13:41:28.712Z,98589.75
2019-05-23T13:46:34.103Z,98586.70
2019-05-23T13:51:40.089Z,98588.38
2019-05-23T13:56:47.755Z,98580.23
2019-05-23T14:01:53.294Z,98581.67
2019-05-23T14:06:58.539Z,98570.69
2019-05-23T14:12:20.729Z,98561.52
2019-05-23T14:17:32.934Z,98557.95
2019-05-23T14:22:42.091Z,98556.20
2019-05-23T14:27:53.582Z,98559.84
2019-05-23T14:33:00.697Z,98558.33
2019-05-23T14:38:07.708Z,98553.91
2019-05-23T14:43:18.076Z,98557.73
2019-05-23T14:48:51.392Z,98546.44
2019-05-23T14:54:22.136Z,98548.53
2019-05-23T14:59:29.523Z,98543.67
2019-05-23T15:04:35.085Z,98543.23
2019-05-23T15:09:40.499Z,98540.42
2019-05-23T15:14:45.565Z,98540.47
2019-05-23T15:19:51.367Z,98529.40
2019-05-23T15:24:56.534Z,98529.14
2019-05-23T15:30:02.634Z,98523.13
2019-05-23T15:35:08.146Z,98529.77
2019-05-23T15:40:14.072Z,98522.02
2019-05-23T15:45:19.540Z,98515.77
2019-05-23T15:50:28.354Z,98503.66
2019-05-23T15:55:55.817Z,98510.48
2019-05-23T16:01:11.079Z,98516.28
2019-05-23T16:06:19.313Z,98513.09
2019-05-23T16:11:25.856Z,98512.55
2019-05-23T16:16:31.432Z,98497.20
2019-05-23T16:21:37.411Z,98498.81
2019-05-23T16:26:43.130Z,98488.91
2019-05-23T16:31:48.266Z,98486.91
2019-05-23T16:36:53.610Z,98486.38
2019-05-23T16:41:59.495Z,98491.19
2019-05-23T16:47:04.912Z,98489.97
2019-05-23T16:52:10.002Z,98488.55
2019-05-23T16:57:27.573Z,98486.48
2019-05-23T17:02:45.977Z,98479.48
2019-05-23T17:08:04.261Z,98483.83
2019-05-23T17:13:35.541Z,98479.16
2019-05-23T17:19:06.888Z,98476.97
2019-05-23T17:24:22.798Z,98479.03
2019-05-23T17:29:52.858Z,98477.36
2019-05-23T17:35:00.196Z,98474.48
2019-05-23T17:40:05.899Z,98476.63
2019-05-23T17:45:14.216Z,98466.19
2019-05-23T17:50:18.670Z,98465.81
2019-05-23T17:55:24.469Z,98466.44
2019-05-23T18:00:36.132Z,98465.69
2019-05-23T18:05:42.302Z,98466.44
2019-05-23T18:10:48.348Z,98470.52
2019-05-23T18:15:55.580Z,98463.50
2019-05-23T18:21:01.518Z,98473.00
2019-05-23T18:26:07.829Z,98470.44
2019-05-23T18:31:17.443Z,98465.66
2019-05-23T18:36:23.172Z,98474.98
2019-05-23T18:41:29.271Z,98477.09
2019-05-23T18:46:39.829Z,98476.93
2019-05-23T18:51:52.540Z,98483.36
2019-05-23T18:56:59.884Z,98493.23
2019-05-23T19:02:06.484Z,98486.94
2019-05-23T19:07:12.946Z,98497.45
2019-05-23T19:12:18.620Z,98495.40
2019-05-23T19:17:24.195Z,98500.51
2019-05-23T19:22:30.262Z,98509.71
2019-05-23T19:27:35.704Z,98510.98
2019-05-23T19:32:41.230Z,98510.88
2019-05-23T19:37:47.344Z,98509.62
2019-05-23T19:42:53.253Z,98502.20
2019-05-23T19:47:58.517Z,98501.07
2019-05-23T19:53:03.994Z,98505.83
2019-05-23T19:58:11.072Z,98498.59
2019-05-23T20:03:18.552Z,98498.19
2019-05-23T20:08:24.024Z,98497.39
2019-05-23T20:13:29.283Z,98501.31
2019-05-23T20:18:34.448Z,98508.56
2019-05-23T20:23:40.037Z,98509.56
2019-05-23T20:28:45.460Z,98513.19
2019-05-23T20:33:51.555Z,98511.41
2019-05-23T20:38:57.625Z,98505.94
2019-05-23T20:44:03.180Z,98504.47
2019-05-23T20:49:08.389Z,98504.55
2019-05-23T20:54:13.655Z,98508.67
2019-05-23T20:59:19.202Z,98501.28
2019-05-23T21:04:24.237Z,98493.18
2019-05-23T21:09:30.503Z,98498.20
2019-05-23T21:14:35.720Z,98494.35
2019-05-23T21:19:40.930Z,98494.84
2019-05-23T21:24:46.085Z,98492.48
2019-05-23T21:29:51.585Z,98493.59
2019-05-23T21:34:57.201Z,98493.32
2019-05-23T21:40:02.751Z,98498.62
2019-05-23T21:45:08.285Z,98490.38
2019-05-23T21:50:13.740Z,98493.47
2019-05-23T21:55:26.803Z,98499.06
2019-05-23T22:01:11.854Z,98494.48
2019-05-23T22:06:18.751Z,98487.43
2019-05-23T22:11:24.147Z,98494.22
2019-05-23T22:16:29.292Z,98486.16
2019-05-23T22:21:34.734Z,98488.21
2019-05-23T22:26:39.947Z,98474.52
2019-05-23T22:31:45.305Z,98477.03
2019-05-23T22:36:50.539Z,98466.25
2019-05-23T22:41:55.759Z,98460.14
2019-05-23T22:47:00.905Z,98462.20
2019-05-23T22:52:06.397Z,98462.38
2019-05-23T22:57:11.766Z,98467.60
2019-05-23T23:02:18.154Z,98465.09
2019-05-23T23:07:23.820Z,98463.92
2019-05-23T23:12:29.075Z,98459.87
2019-05-23T23:17:34.307Z,98469.66
2019-05-23T23:22:40.209Z,98467.30
2019-05-23T23:27:45.349Z,98461.40
2019-05-23T23:32:50.603Z,98454.83
2019-05-23T23:37:55.760Z,98464.44
2019-05-23T23:43:01.226Z,98459.89
2019-05-23T23:48:24.429Z,98454.14
2019-05-23T23:53:47.365Z,98452.15
2019-05-23T23:58:51.801Z,98449.09
